createdAt,value
2018-08-20T00:01:01.028Z,91.30
2018-08-20T00:03:31.455Z,91.30
2018-08-20T00:05:59.720Z,91.40
2018-08-20T00:08:27.303Z,91.40
2018-08-20T00:10:56.815Z,91.50
2018-08-20T00:13:24.911Z,91.60
2018-08-20T00:15:52.812Z,91.80
2018-08-20T00:18:25.920Z,92.00
2018-08-20T00:20:53.650Z,92.20
2018-08-20T00:23:21.416Z,92.30
2018-08-20T00:25:49.018Z,92.30
2018-08-20T00:28:16.538Z,92.30
2018-08-20T00:30:44.073Z,92.40
2018-08-20T00:33:11.582Z,92.50
2018-08-20T00:35:39.138Z,92.50
2018-08-20T00:38:06.680Z,92.50
2018-08-20T00:40:34.214Z,92.70
2018-08-20T00:43:01.891Z,92.70
2018-08-20T00:45:29.939Z,92.90
2018-08-20T00:47:57.478Z,93.10
2018-08-20T00:50:25.020Z,93.10
2018-08-20T00:52:52.531Z,93.20
2018-08-20T00:55:20.127Z,93.20
2018-08-20T00:57:47.624Z,93.20
2018-08-20T01:00:15.168Z,93.40
2018-08-20T01:02:42.703Z,93.30
2018-08-20T01:05:10.241Z,93.30
2018-08-20T01:07:37.800Z,93.40
2018-08-20T01:10:06.718Z,93.50
2018-08-20T01:12:34.406Z,93.50
2018-08-20T01:15:01.964Z,93.50
2018-08-20T01:17:30.267Z,93.60
2018-08-20T01:19:57.856Z,93.60
2018-08-20T01:22:25.430Z,93.70
2018-08-20T01:24:52.970Z,93.70
2018-08-20T01:27:26.737Z,93.70
2018-08-20T01:29:54.256Z,93.70
2018-08-20T01:32:21.855Z,93.80
2018-08-20T01:34:49.383Z,93.80
2018-08-20T01:37:18.242Z,93.70
2018-08-20T01:39:46.317Z,93.60
2018-08-20T01:42:14.674Z,93.70
2018-08-20T01:44:42.421Z,93.70
2018-08-20T01:47:09.989Z,93.60
2018-08-20T01:49:37.597Z,93.60
2018-08-20T01:52:06.005Z,93.60
2018-08-20T01:54:34.387Z,93.60
2018-08-20T01:57:02.037Z,93.60
2018-08-20T01:59:29.793Z,93.60
2018-08-20T02:01:57.364Z,93.50
2018-08-20T02:04:24.953Z,93.50
2018-08-20T02:06:52.534Z,93.50
2018-08-20T02:09:20.229Z,93.60
2018-08-20T02:11:47.781Z,93.50
2018-08-20T02:14:15.359Z,93.60
2018-08-20T02:16:42.986Z,93.60
2018-08-20T02:19:10.565Z,93.60
2018-08-20T02:21:38.164Z,93.70
2018-08-20T02:24:06.041Z,93.70
2018-08-20T02:26:33.564Z,93.70
2018-08-20T02:29:01.101Z,93.80
2018-08-20T02:31:29.472Z,93.80
2018-08-20T02:33:57.065Z,93.80
2018-08-20T02:36:26.593Z,93.80
2018-08-20T02:38:54.213Z,93.80
2018-08-20T02:41:21.842Z,93.70
2018-08-20T02:43:49.446Z,93.60
2018-08-20T02:46:27.112Z,93.60
2018-08-20T02:48:54.668Z,93.40
2018-08-20T02:51:22.207Z,93.20
2018-08-20T02:53:49.742Z,92.90
2018-08-20T02:56:17.282Z,92.80
2018-08-20T02:58:44.910Z,92.70
2018-08-20T03:01:12.554Z,92.60
2018-08-20T03:03:40.078Z,92.50
2018-08-20T03:06:07.683Z,92.50
2018-08-20T03:08:35.245Z,92.50
2018-08-20T03:11:02.821Z,92.50
2018-08-20T03:13:31.146Z,92.60
2018-08-20T03:15:59.191Z,92.70
2018-08-20T03:18:26.734Z,92.80
2018-08-20T03:20:54.256Z,93.00
2018-08-20T03:23:21.828Z,92.80
2018-08-20T03:25:49.402Z,92.80
2018-08-20T03:28:16.907Z,92.70
2018-08-20T03:30:44.496Z,92.70
2018-08-20T03:33:12.126Z,92.70
2018-08-20T03:35:39.677Z,92.90
2018-08-20T03:38:07.235Z,92.90
2018-08-20T03:40:34.798Z,93.00
2018-08-20T03:43:02.409Z,93.00
2018-08-20T03:45:30.360Z,92.90
2018-08-20T03:47:57.942Z,92.80
2018-08-20T03:50:25.472Z,93.00
2018-08-20T03:52:53.024Z,92.60
2018-08-20T03:55:20.621Z,92.50
2018-08-20T03:57:48.180Z,92.40
2018-08-20T04:00:16.504Z,92.40
2018-08-20T04:02:44.092Z,92.30
2018-08-20T04:05:11.703Z,92.40
2018-08-20T04:07:39.247Z,92.50
2018-08-20T04:10:06.825Z,92.50
2018-08-20T04:12:34.355Z,92.60
2018-08-20T04:15:01.891Z,92.70
2018-08-20T04:17:30.104Z,93.10
2018-08-20T04:19:57.641Z,92.80
2018-08-20T04:22:25.252Z,92.80
2018-08-20T04:24:53.496Z,92.90
2018-08-20T04:27:21.033Z,92.90
2018-08-20T04:29:48.556Z,92.90
2018-08-20T04:32:16.115Z,93.00
2018-08-20T04:34:43.685Z,93.10
2018-08-20T04:37:11.289Z,93.10
2018-08-20T04:39:38.831Z,93.30
2018-08-20T04:42:06.570Z,93.40
2018-08-20T04:44:34.119Z,93.60
2018-08-20T04:47:01.673Z,93.60
2018-08-20T04:49:29.725Z,93.90
2018-08-20T04:51:57.257Z,93.90
2018-08-20T04:54:24.808Z,93.70
2018-08-20T04:56:52.383Z,93.90
2018-08-20T04:59:19.930Z,93.50
2018-08-20T05:01:47.480Z,93.70
2018-08-20T05:04:15.027Z,93.60
2018-08-20T05:06:42.554Z,93.30
2018-08-20T05:09:10.077Z,93.50
2018-08-20T05:11:37.586Z,93.20
2018-08-20T05:14:05.178Z,92.90
2018-08-20T05:16:32.712Z,92.60
2018-08-20T05:21:34.795Z,92.90
2018-08-20T05:24:02.368Z,92.40
2018-08-20T05:26:30.482Z,92.20
2018-08-20T05:28:58.038Z,92.50
2018-08-20T05:31:25.654Z,92.40
2018-08-20T05:33:53.179Z,92.20
2018-08-20T05:36:20.722Z,91.80
2018-08-20T05:38:48.264Z,91.90
2018-08-20T05:41:15.846Z,91.90
2018-08-20T05:43:43.391Z,91.80
2018-08-20T05:46:11.024Z,91.80
2018-08-20T05:48:38.609Z,91.50
2018-08-20T05:51:06.386Z,91.30
2018-08-20T05:53:33.953Z,91.30
2018-08-20T05:56:01.525Z,91.50
2018-08-20T05:58:29.063Z,91.00
2018-08-20T06:00:56.626Z,90.80
2018-08-20T06:03:24.147Z,90.60
2018-08-20T06:05:51.701Z,90.40
2018-08-20T06:08:19.265Z,90.30
2018-08-20T06:10:46.873Z,90.20
2018-08-20T06:13:14.427Z,90.20
2018-08-20T06:15:42.022Z,90.10
2018-08-20T06:18:09.654Z,90.00
2018-08-20T06:20:37.284Z,89.50
2018-08-20T06:23:05.138Z,89.00
2018-08-20T06:25:32.685Z,87.80
2018-08-20T06:28:00.286Z,87.40
2018-08-20T06:30:27.945Z,86.70
2018-08-20T06:32:55.553Z,86.50
2018-08-20T06:35:23.109Z,86.30
2018-08-20T06:37:51.272Z,85.70
2018-08-20T06:40:18.840Z,85.30
2018-08-20T06:42:46.415Z,84.90
2018-08-20T06:45:15.321Z,84.70
2018-08-20T06:47:43.651Z,84.60
2018-08-20T06:50:11.295Z,84.30
2018-08-20T06:52:40.197Z,84.20
2018-08-20T06:55:08.059Z,84.00
2018-08-20T06:57:35.707Z,83.80
2018-08-20T07:00:04.423Z,83.20
2018-08-20T07:02:32.036Z,83.00
2018-08-20T07:04:59.617Z,82.80
2018-08-20T07:07:27.249Z,82.70
2018-08-20T07:09:54.825Z,82.60
2018-08-20T07:12:22.427Z,82.00
2018-08-20T07:14:50.011Z,81.40
2018-08-20T07:17:17.623Z,81.10
2018-08-20T07:19:45.219Z,80.70
2018-08-20T07:22:12.812Z,80.20
2018-08-20T07:24:40.466Z,80.60
2018-08-20T07:27:08.081Z,79.40
2018-08-20T07:29:42.426Z,78.80
2018-08-20T07:32:11.214Z,78.20
2018-08-20T07:34:40.205Z,77.30
2018-08-20T07:37:09.426Z,76.60
2018-08-20T07:39:37.134Z,76.90
2018-08-20T07:42:04.742Z,76.60
2018-08-20T07:44:32.396Z,76.30
2018-08-20T07:47:00.135Z,76.20
2018-08-20T07:49:27.734Z,76.10
2018-08-20T07:51:55.304Z,75.20
2018-08-20T07:54:22.956Z,74.80
2018-08-20T07:56:50.578Z,74.00
2018-08-20T07:59:18.121Z,73.70
2018-08-20T08:01:45.708Z,73.80
2018-08-20T08:04:13.357Z,73.30
2018-08-20T08:06:41.028Z,72.50
2018-08-20T08:09:09.976Z,71.80
2018-08-20T08:11:37.611Z,71.00
2018-08-20T08:14:05.967Z,71.10
2018-08-20T08:16:34.358Z,71.10
2018-08-20T08:19:02.340Z,71.00
2018-08-20T08:21:29.950Z,70.40
2018-08-20T08:23:57.603Z,70.00
2018-08-20T08:26:25.288Z,69.30
2018-08-20T08:28:52.895Z,69.10
2018-08-20T08:31:20.523Z,68.20
2018-08-20T08:33:48.121Z,68.40
2018-08-20T08:36:15.846Z,68.60
2018-08-20T08:38:43.454Z,68.00
2018-08-20T08:41:11.013Z,66.80
2018-08-20T08:43:38.565Z,66.70
2018-08-20T08:46:06.227Z,67.00
2018-08-20T08:48:33.790Z,66.90
2018-08-20T08:51:01.391Z,65.70
2018-08-20T08:53:29.014Z,64.20
2018-08-20T08:55:56.545Z,64.00
2018-08-20T08:58:24.143Z,63.10
2018-08-20T09:00:52.032Z,62.80
2018-08-20T09:03:20.553Z,62.60
2018-08-20T09:05:48.112Z,62.20
2018-08-20T09:08:15.695Z,61.80
2018-08-20T09:10:43.319Z,61.80
2018-08-20T09:13:10.888Z,61.50
2018-08-20T09:15:38.429Z,60.20
2018-08-20T09:18:06.307Z,60.10
2018-08-20T09:20:36.827Z,60.00
2018-08-20T09:23:04.609Z,59.60
2018-08-20T09:25:32.237Z,59.60
2018-08-20T09:27:59.842Z,58.80
2018-08-20T09:30:27.418Z,58.90
2018-08-20T09:32:55.009Z,59.20
2018-08-20T09:35:22.623Z,58.70
2018-08-20T09:37:50.451Z,58.00
2018-08-20T09:40:18.107Z,57.40
2018-08-20T09:42:45.696Z,56.60
2018-08-20T09:45:13.620Z,56.00
2018-08-20T09:47:42.231Z,55.70
2018-08-20T09:50:11.652Z,55.80
2018-08-20T09:52:39.194Z,56.10
2018-08-20T09:55:07.730Z,55.30
2018-08-20T09:57:35.368Z,55.00
2018-08-20T10:00:04.393Z,55.30
2018-08-20T10:02:31.969Z,55.70
2018-08-20T10:04:59.570Z,55.40
2018-08-20T10:07:27.144Z,54.90
2018-08-20T10:09:54.683Z,54.20
2018-08-20T10:12:22.236Z,53.70
2018-08-20T10:14:50.491Z,53.30
2018-08-20T10:17:18.060Z,53.00
2018-08-20T10:19:45.627Z,52.50
2018-08-20T10:22:13.220Z,50.60
2018-08-20T10:24:40.798Z,50.00
2018-08-20T10:27:08.437Z,49.50
2018-08-20T10:29:36.014Z,48.30
2018-08-20T10:32:03.650Z,48.30
2018-08-20T10:34:31.184Z,48.60
2018-08-20T10:36:58.792Z,48.80
2018-08-20T10:39:26.331Z,47.60
2018-08-20T10:41:54.157Z,46.80
2018-08-20T10:44:21.912Z,46.00
2018-08-20T10:46:49.448Z,45.20
2018-08-20T10:49:17.306Z,44.90
2018-08-20T10:51:45.592Z,45.10
2018-08-20T10:54:13.164Z,44.40
2018-08-20T10:56:40.750Z,44.60
2018-08-20T10:59:08.354Z,43.40
2018-08-20T11:01:35.926Z,43.50
2018-08-20T11:04:03.603Z,43.00
2018-08-20T11:06:31.152Z,43.00
2018-08-20T11:08:59.326Z,42.60
2018-08-20T11:11:26.904Z,42.00
2018-08-20T11:13:54.469Z,41.60
2018-08-20T11:16:22.868Z,41.90
2018-08-20T11:18:51.208Z,40.80
2018-08-20T11:21:18.717Z,39.90
2018-08-20T11:23:46.281Z,40.00
2018-08-20T11:26:13.817Z,39.90
2018-08-20T11:28:41.352Z,39.80
2018-08-20T11:31:08.914Z,39.70
2018-08-20T11:33:36.514Z,39.20
2018-08-20T11:36:04.166Z,38.90
2018-08-20T11:38:31.719Z,38.30
2018-08-20T11:40:59.302Z,38.30
2018-08-20T11:43:26.825Z,38.00
2018-08-20T11:45:54.424Z,37.80
2018-08-20T11:48:22.871Z,38.10
2018-08-20T11:50:51.045Z,38.00
2018-08-20T11:53:18.623Z,37.10
2018-08-20T11:55:46.222Z,36.60
2018-08-20T11:58:13.767Z,35.50
2018-08-20T12:00:41.317Z,35.30
2018-08-20T12:03:08.904Z,35.00
2018-08-20T12:05:36.509Z,34.90
2018-08-20T12:08:04.160Z,34.60
2018-08-20T12:10:31.730Z,34.80
2018-08-20T12:12:59.279Z,34.80
2018-08-20T12:15:26.809Z,35.20
2018-08-20T12:17:54.358Z,35.20
2018-08-20T12:20:22.219Z,35.40
2018-08-20T12:22:49.787Z,34.40
2018-08-20T12:25:17.333Z,34.50
2018-08-20T12:27:45.162Z,34.50
2018-08-20T12:30:13.304Z,34.10
2018-08-20T12:32:41.139Z,33.90
2018-08-20T12:35:09.211Z,34.50
2018-08-20T12:37:37.420Z,35.50
2018-08-20T12:40:05.317Z,37.00
2018-08-20T12:42:32.820Z,38.40
2018-08-20T12:45:00.530Z,39.00
2018-08-20T12:47:28.113Z,39.20
2018-08-20T12:49:55.684Z,39.10
2018-08-20T12:52:23.224Z,38.00
2018-08-20T12:54:50.766Z,36.80
2018-08-20T12:57:19.060Z,35.70
2018-08-20T12:59:46.650Z,34.70
2018-08-20T13:02:14.306Z,35.50
2018-08-20T13:04:41.898Z,36.30
2018-08-20T13:07:09.480Z,36.10
2018-08-20T13:09:37.070Z,36.70
2018-08-20T13:12:04.698Z,37.80
2018-08-20T13:14:32.250Z,38.60
2018-08-20T13:16:59.801Z,38.00
2018-08-20T13:19:27.409Z,37.70
2018-08-20T13:21:54.982Z,36.30
2018-08-20T13:24:23.110Z,35.20
2018-08-20T13:26:50.674Z,34.40
2018-08-20T13:29:18.250Z,34.50
2018-08-20T13:31:45.788Z,32.90
2018-08-20T13:34:13.334Z,32.00
2018-08-20T13:36:40.873Z,32.10
2018-08-20T13:39:08.838Z,31.70
2018-08-20T13:41:36.515Z,31.90
2018-08-20T13:44:04.165Z,32.10
2018-08-20T13:46:31.698Z,31.60
2018-08-20T13:48:59.249Z,31.50
2018-08-20T13:51:26.800Z,32.20
2018-08-20T13:53:54.324Z,32.10
2018-08-20T13:56:22.206Z,31.90
2018-08-20T13:58:49.744Z,31.60
2018-08-20T14:01:17.310Z,31.90
2018-08-20T14:03:44.910Z,31.90
2018-08-20T14:06:12.456Z,30.50
2018-08-20T14:08:40.058Z,30.80
2018-08-20T14:11:07.667Z,30.80
2018-08-20T14:13:35.204Z,31.80
2018-08-20T14:16:02.825Z,33.10
2018-08-20T14:18:30.442Z,33.30
2018-08-20T14:21:04.825Z,32.80
2018-08-20T14:23:32.413Z,31.90
2018-08-20T14:26:00.073Z,31.40
2018-08-20T14:28:28.106Z,31.10
2018-08-20T14:30:55.685Z,30.90
2018-08-20T14:33:23.293Z,31.10
2018-08-20T14:35:51.571Z,30.80
2018-08-20T14:38:19.230Z,30.10
2018-08-20T14:40:46.785Z,30.00
2018-08-20T14:43:14.346Z,29.90
2018-08-20T14:45:47.593Z,30.60
2018-08-20T14:48:15.163Z,31.40
2018-08-20T14:50:42.743Z,32.00
2018-08-20T14:53:10.318Z,32.10
2018-08-20T14:55:37.863Z,32.30
2018-08-20T14:58:05.449Z,31.80
2018-08-20T15:00:33.039Z,31.00
2018-08-20T15:03:00.636Z,31.50
2018-08-20T15:05:28.243Z,31.20
2018-08-20T15:07:55.793Z,30.50
2018-08-20T15:10:23.348Z,30.50
2018-08-20T15:12:51.160Z,30.20
2018-08-20T15:15:18.833Z,30.10
2018-08-20T15:17:46.331Z,29.90
2018-08-20T15:20:13.884Z,30.00
2018-08-20T15:22:41.498Z,30.00
2018-08-20T15:25:09.096Z,30.10
2018-08-20T15:27:36.674Z,30.70
2018-08-20T15:30:04.660Z,31.30
2018-08-20T15:32:32.320Z,31.90
2018-08-20T15:34:59.884Z,32.10
2018-08-20T15:37:27.429Z,31.90
2018-08-20T15:39:57.344Z,32.00
2018-08-20T15:42:24.901Z,31.70
2018-08-20T15:44:53.194Z,31.60
2018-08-20T15:47:20.745Z,31.70
2018-08-20T15:49:48.285Z,31.90
2018-08-20T15:52:15.856Z,32.00
2018-08-20T15:54:43.430Z,32.60
2018-08-20T15:57:10.992Z,32.80
2018-08-20T15:59:38.612Z,32.30
2018-08-20T16:02:06.242Z,32.20
2018-08-20T16:04:33.842Z,32.10
2018-08-20T16:07:01.441Z,31.70
2018-08-20T16:09:29.038Z,31.60
2018-08-20T16:11:56.573Z,31.60
2018-08-20T16:14:24.130Z,31.60
2018-08-20T16:16:51.676Z,32.00
2018-08-20T16:19:19.309Z,32.00
2018-08-20T16:21:46.962Z,31.90
2018-08-20T16:24:14.617Z,32.40
2018-08-20T16:26:42.224Z,32.80
2018-08-20T16:29:09.815Z,33.10
2018-08-20T16:31:37.448Z,33.40
2018-08-20T16:34:05.097Z,33.50
2018-08-20T16:36:32.829Z,34.10
2018-08-20T16:39:00.539Z,34.10
2018-08-20T16:41:28.137Z,34.10
2018-08-20T16:43:55.778Z,34.40
2018-08-20T16:46:23.344Z,34.90
2018-08-20T16:48:51.593Z,35.50
2018-08-20T16:51:19.199Z,35.60
2018-08-20T16:53:46.768Z,35.70
2018-08-20T16:56:14.643Z,35.90
2018-08-20T16:58:42.212Z,36.10
2018-08-20T17:01:15.476Z,36.60
2018-08-20T17:03:43.059Z,36.60
2018-08-20T17:06:10.602Z,37.00
2018-08-20T17:08:40.735Z,37.00
2018-08-20T17:11:08.518Z,37.40
2018-08-20T17:13:36.045Z,37.60
2018-08-20T17:16:03.667Z,38.20
2018-08-20T17:18:31.218Z,38.70
2018-08-20T17:20:58.810Z,39.00
2018-08-20T17:23:26.456Z,39.40
2018-08-20T17:25:55.685Z,39.70
2018-08-20T17:28:24.580Z,39.80
2018-08-20T17:30:55.885Z,40.20
2018-08-20T17:33:23.496Z,40.70
2018-08-20T17:35:51.178Z,41.40
2018-08-20T17:38:18.772Z,42.00
2018-08-20T17:40:46.398Z,42.60
2018-08-20T17:43:14.021Z,43.20
2018-08-20T17:45:41.618Z,43.70
2018-08-20T17:48:16.142Z,44.30
2018-08-20T17:50:43.725Z,44.80
2018-08-20T17:53:11.315Z,45.30
2018-08-20T17:55:38.913Z,45.80
2018-08-20T17:58:06.594Z,46.20
2018-08-20T18:00:41.505Z,46.60
2018-08-20T18:03:40.779Z,47.00
2018-08-20T18:06:08.992Z,47.70
2018-08-20T18:08:36.695Z,48.60
2018-08-20T18:11:05.152Z,49.70
2018-08-20T18:13:47.171Z,50.70
2018-08-20T18:16:16.110Z,50.90
2018-08-20T18:18:45.439Z,51.40
2018-08-20T18:21:13.147Z,51.40
2018-08-20T18:23:40.735Z,51.60
2018-08-20T18:26:08.395Z,51.70
2018-08-20T18:28:42.849Z,51.60
2018-08-20T18:31:16.058Z,51.80
2018-08-20T18:33:43.949Z,52.20
2018-08-20T18:36:16.745Z,52.40
2018-08-20T18:39:01.207Z,53.40
2018-08-20T18:42:10.739Z,53.40
2018-08-20T18:44:38.438Z,54.30
2018-08-20T18:47:08.051Z,55.10
2018-08-20T18:50:02.652Z,56.00
2018-08-20T18:52:30.969Z,56.40
2018-08-20T18:54:59.489Z,57.60
2018-08-20T18:57:33.168Z,58.20
2018-08-20T19:00:03.011Z,58.70
2018-08-20T19:02:40.672Z,58.90
2018-08-20T19:05:11.819Z,59.00
2018-08-20T19:07:39.720Z,59.30
2018-08-20T19:10:12.991Z,59.70
2018-08-20T19:12:40.667Z,60.00
2018-08-20T19:15:45.956Z,60.40
2018-08-20T19:18:21.237Z,61.00
2018-08-20T19:20:49.081Z,61.50
2018-08-20T19:23:16.763Z,61.80
2018-08-20T19:25:44.449Z,62.20
2018-08-20T19:28:17.779Z,63.10
2018-08-20T19:30:45.455Z,62.60
2018-08-20T19:33:18.606Z,62.90
2018-08-20T19:35:46.298Z,63.30
2018-08-20T19:38:14.004Z,63.70
2018-08-20T19:40:41.741Z,63.70
2018-08-20T19:43:09.391Z,64.00
2018-08-20T19:45:41.799Z,64.30
2018-08-20T19:48:16.271Z,64.50
2018-08-20T19:50:43.897Z,64.90
2018-08-20T19:53:17.040Z,65.40
2018-08-20T19:55:44.717Z,65.80
2018-08-20T19:58:19.448Z,66.30
2018-08-20T20:01:00.513Z,66.90
2018-08-20T20:03:29.551Z,67.20
2018-08-20T20:05:57.245Z,67.40
2018-08-20T20:08:24.886Z,67.70
2018-08-20T20:10:53.436Z,67.80
2018-08-20T20:13:21.818Z,67.60
2018-08-20T20:15:52.045Z,68.10
2018-08-20T20:18:19.747Z,68.30
2018-08-20T20:20:47.461Z,68.20
2018-08-20T20:23:16.251Z,68.40
2018-08-20T20:25:44.648Z,68.60
2018-08-20T20:28:12.296Z,68.90
2018-08-20T20:30:39.917Z,69.10
2018-08-20T20:33:07.642Z,69.60
2018-08-20T20:35:35.450Z,70.10
2018-08-20T20:38:03.114Z,70.70
2018-08-20T20:40:30.738Z,70.60
2018-08-20T20:42:58.303Z,71.00
2018-08-20T20:45:25.940Z,71.70
2018-08-20T20:47:54.180Z,72.10
2018-08-20T20:50:22.164Z,72.20
2018-08-20T20:52:49.740Z,72.20
2018-08-20T20:55:17.352Z,72.10
2018-08-20T20:57:44.954Z,71.90
2018-08-20T21:00:12.592Z,72.10
2018-08-20T21:02:40.130Z,72.10
2018-08-20T21:05:08.959Z,72.30
2018-08-20T21:07:36.568Z,72.80
2018-08-20T21:10:05.018Z,73.20
2018-08-20T21:12:32.899Z,73.90
2018-08-20T21:15:00.648Z,74.60
2018-08-20T21:17:31.555Z,75.00
2018-08-20T21:19:59.143Z,75.90
2018-08-20T21:22:26.759Z,76.50
2018-08-20T21:24:54.363Z,77.10
2018-08-20T21:27:25.781Z,77.60
2018-08-20T21:29:57.581Z,77.80
2018-08-20T21:32:25.218Z,78.30
2018-08-20T21:34:57.041Z,78.60
2018-08-20T21:37:24.637Z,78.90
2018-08-20T21:39:52.897Z,79.20
2018-08-20T21:42:28.427Z,79.40
2018-08-20T21:44:57.141Z,79.80
2018-08-20T21:47:27.203Z,80.10
2018-08-20T21:49:54.815Z,80.50
2018-08-20T21:52:22.888Z,80.70
2018-08-20T21:54:50.474Z,81.30
2018-08-20T21:57:18.163Z,81.70
2018-08-20T21:59:57.242Z,81.80
2018-08-20T22:02:26.317Z,82.20
2018-08-20T22:04:53.989Z,82.40
2018-08-20T22:07:22.284Z,82.80
2018-08-20T22:09:49.833Z,82.90
2018-08-20T22:12:17.414Z,83.00
2018-08-20T22:14:45.034Z,82.70
2018-08-20T22:17:17.247Z,82.20
2018-08-20T22:19:44.904Z,81.70
2018-08-20T22:22:12.595Z,81.60
2018-08-20T22:24:41.531Z,81.60
2018-08-20T22:27:09.123Z,81.60
2018-08-20T22:29:42.565Z,81.90
2018-08-20T22:32:10.193Z,81.90
2018-08-20T22:34:37.857Z,82.30
2018-08-20T22:37:06.711Z,82.40
2018-08-20T22:39:34.320Z,82.30
2018-08-20T22:42:01.925Z,82.10
2018-08-20T22:44:29.523Z,82.50
2018-08-20T22:46:57.120Z,82.60
2018-08-20T22:49:24.717Z,82.90
2018-08-20T22:51:53.101Z,83.90
2018-08-20T22:54:20.733Z,84.90
2018-08-20T22:56:48.361Z,86.20
2018-08-20T22:59:16.475Z,86.90
2018-08-20T23:01:44.141Z,87.30
2018-08-20T23:04:11.778Z,87.70
2018-08-20T23:06:39.352Z,88.20
2018-08-20T23:09:24.201Z,88.40
2018-08-20T23:11:52.714Z,88.50
2018-08-20T23:14:20.308Z,88.60
2018-08-20T23:16:49.037Z,88.80
2018-08-20T23:19:17.198Z,88.90
2018-08-20T23:21:45.767Z,89.40
2018-08-20T23:24:14.119Z,89.90
2018-08-20T23:26:41.806Z,90.20
2018-08-20T23:29:09.704Z,90.50
2018-08-20T23:31:37.776Z,90.60
2018-08-20T23:34:09.445Z,90.60
2018-08-20T23:36:37.330Z,90.60
2018-08-20T23:39:08.348Z,90.50
2018-08-20T23:41:36.060Z,90.30
2018-08-20T23:44:03.715Z,90.20
2018-08-20T23:46:34.147Z,90.00
2018-08-20T23:49:02.278Z,90.00
2018-08-20T23:51:29.939Z,90.00
2018-08-20T23:53:57.550Z,90.20
2018-08-20T23:56:25.161Z,90.30
2018-08-20T23:58:53.389Z,90.60
